Time;durP1;ratioP1;P1;durP2;ratioP2;P2;SDS_P1;SDS_P2;PMS_P1;PMS_P2;Temp;Humidity;BMP_temperature;BMP_pressure;BME280_temperature;BME280_humidity;BME280_pressure;Samples;Min_cycle;Max_cycle;Signal;HPM_P1;HPM_P2
2022/11/01 00:00:08;;;;;;;23.00;12.13;;;12.90;99.90;;;;;;5072163;28;20109;-89
2022/11/01 00:02:35;;;;;;;23.35;12.48;;;12.90;99.90;;;;;;5055867;28;20052;-88
2022/11/01 00:05:00;;;;;;;21.13;11.48;;;13.00;99.90;;;;;;5053768;28;20090;-88
2022/11/01 00:07:26;;;;;;;22.90;12.10;;;13.00;99.90;;;;;;5055056;28;20036;-89
2022/11/01 00:09:52;;;;;;;17.08;11.38;;;13.80;99.90;;;;;;5072063;28;20052;-89
2022/11/01 00:12:17;;;;;;;24.45;11.20;;;13.00;99.90;;;;;;5072201;28;20036;-89
2022/11/01 00:14:43;;;;;;;24.20;12.32;;;13.10;99.90;;;;;;5056081;28;20480;-88
2022/11/01 00:17:09;;;;;;;20.77;11.15;;;13.40;99.90;;;;;;5055352;28;20161;-89
2022/11/01 00:19:34;;;;;;;22.70;12.00;;;13.10;99.90;;;;;;5073664;28;20052;-88
2022/11/01 00:22:01;;;;;;;21.63;11.45;;;13.10;99.90;;;;;;5054760;28;20078;-90
2022/11/01 00:24:29;;;;;;;22.33;11.07;;;13.10;99.90;;;;;;5056855;28;20423;-88
2022/11/01 00:26:55;;;;;;;19.25;11.40;;;13.10;99.90;;;;;;5057000;28;20043;-88
2022/11/01 00:29:21;;;;;;;17.48;10.80;;;13.10;99.90;;;;;;5073494;28;20053;-89
2022/11/01 00:31:46;;;;;;;22.00;11.73;;;13.10;99.90;;;;;;5079152;28;20036;-89
2022/11/01 00:34:12;;;;;;;23.58;11.52;;;13.10;99.90;;;;;;5060962;28;20044;-89
2022/11/01 00:36:38;;;;;;;20.17;10.85;;;13.20;99.90;;;;;;5045737;28;20064;-88
2022/11/01 00:39:05;;;;;;;17.98;11.70;;;13.50;99.90;;;;;;5077633;28;20051;-89
2022/11/01 00:41:31;;;;;;;21.20;11.05;;;13.10;99.90;;;;;;5095383;28;20040;-88
2022/11/01 00:43:56;;;;;;;20.85;10.68;;;13.10;99.90;;;;;;5078098;28;20043;-87
2022/11/01 00:46:22;;;;;;;18.90;10.60;;;13.10;99.90;;;;;;5056647;28;20047;-88
2022/11/01 00:48:48;;;;;;;18.48;11.50;;;13.40;99.90;;;;;;5072133;28;20024;-87
2022/11/01 00:51:14;;;;;;;22.65;11.23;;;13.10;99.90;;;;;;5069087;28;20040;-89
2022/11/01 00:53:42;;;;;;;19.40;10.85;;;13.10;99.90;;;;;;5054675;28;20043;-88
2022/11/01 00:56:08;;;;;;;26.27;11.15;;;13.10;99.90;;;;;;5053370;28;20086;-88
2022/11/01 00:58:34;;;;;;;22.77;11.52;;;13.10;99.90;;;;;;5055433;28;20513;-88
2022/11/01 01:01:00;;;;;;;25.45;11.43;;;13.10;99.90;;;;;;5057782;28;20096;-88
2022/11/01 01:03:25;;;;;;;21.88;11.35;;;13.20;99.90;;;;;;5079980;28;20051;-88
2022/11/01 01:05:52;;;;;;;22.17;10.10;;;13.10;99.90;;;;;;5090713;28;20118;-88
2022/11/01 01:08:19;;;;;;;18.15;10.77;;;13.10;99.90;;;;;;5075993;28;20066;-88
2022/11/01 01:10:45;;;;;;;18.30;10.02;;;13.20;99.90;;;;;;5094126;28;20036;-88
2022/11/01 01:13:11;;;;;;;20.88;10.15;;;13.30;99.90;;;;;;5091542;28;20028;-89
2022/11/01 01:15:37;;;;;;;20.75;10.40;;;13.20;99.90;;;;;;5112682;28;20059;-88
2022/11/01 01:18:04;;;;;;;23.52;10.85;;;13.20;99.90;;;;;;5108401;28;20032;-89
2022/11/01 01:20:30;;;;;;;22.45;10.80;;;13.20;99.90;;;;;;5092657;28;20056;-89
2022/11/01 01:22:55;;;;;;;21.20;11.00;;;13.20;99.90;;;;;;5089131;28;20048;-89
2022/11/01 01:25:22;;;;;;;16.90;9.60;;;13.20;99.90;;;;;;5029406;28;20048;-89
2022/11/01 01:27:48;;;;;;;15.15;10.30;;;13.20;99.90;;;;;;5091593;28;20044;-89
2022/11/01 01:30:14;;;;;;;23.98;9.32;;;13.20;99.90;;;;;;5055163;28;20052;-89
2022/11/01 01:32:40;;;;;;;18.08;9.00;;;13.20;99.90;;;;;;5055356;28;20051;-87
2022/11/01 01:35:07;;;;;;;18.88;9.70;;;13.30;99.90;;;;;;5068721;28;20044;-87
2022/11/01 01:37:33;;;;;;;17.98;9.85;;;13.20;99.90;;;;;;5068924;28;20130;-88
2022/11/01 01:39:59;;;;;;;17.73;10.02;;;13.30;99.90;;;;;;5055377;28;20093;-88
2022/11/01 01:42:39;;;;;;;18.58;9.98;;;13.30;99.90;;;;;;5053109;28;20070;-88
2022/11/01 01:45:25;;;;;;;29.38;10.15;;;13.40;99.90;;;;;;5070503;28;20380;-88
2022/11/01 01:47:53;;;;;;;25.60;9.38;;;13.40;99.90;;;;;;5052445;28;20067;-89
2022/11/01 01:50:34;;;;;;;18.65;9.65;;;13.40;99.90;;;;;;5052059;28;20048;-88
2022/11/01 01:53:10;;;;;;;16.90;9.45;;;13.40;99.90;;;;;;5068288;28;20475;-88
2022/11/01 01:55:47;;;;;;;19.65;8.35;;;13.40;99.90;;;;;;5050528;28;20080;-88
2022/11/01 01:58:17;;;;;;;25.30;9.57;;;13.40;99.90;;;;;;5069019;28;20506;-88
2022/11/01 02:00:43;;;;;;;20.00;9.50;;;13.40;99.90;;;;;;5068082;28;20109;-88
2022/11/01 02:03:10;;;;;;;21.17;9.52;;;13.40;99.90;;;;;;5068330;28;20491;-88
2022/11/01 02:05:52;;;;;;;18.17;9.68;;;13.40;99.90;;;;;;5051479;28;20048;-87
2022/11/01 02:08:26;;;;;;;18.75;8.55;;;13.40;99.90;;;;;;5067624;28;20079;-88
2022/11/01 02:10:55;;;;;;;18.40;8.65;;;13.50;99.90;;;;;;5068780;28;20089;-88
2022/11/01 02:13:20;;;;;;;21.15;8.70;;;13.60;99.90;;;;;;5067467;28;20440;-88
2022/11/01 02:16:01;;;;;;;16.42;9.80;;;14.10;99.90;;;;;;5035550;28;20086;-88
2022/11/01 02:18:55;;;;;;;16.05;8.60;;;13.40;99.90;;;;;;5051136;28;20048;-88
2022/11/01 02:21:54;;;;;;;17.25;8.27;;;13.40;99.90;;;;;;5066690;28;20044;-87
2022/11/01 02:24:39;;;;;;;22.33;9.23;;;13.40;99.90;;;;;;5051636;28;20501;-89
2022/11/01 02:27:11;;;;;;;20.52;8.65;;;13.40;99.90;;;;;;5085225;28;20495;-89
2022/11/01 02:29:36;;;;;;;16.40;8.20;;;13.40;99.90;;;;;;5066971;28;20044;-89
2022/11/01 02:32:32;;;;;;;19.60;9.00;;;13.40;99.90;;;;;;5068511;28;20391;-89
2022/11/01 02:35:21;;;;;;;25.20;7.88;;;13.40;99.90;;;;;;5068089;28;20399;-89
2022/11/01 02:37:57;;;;;;;16.13;8.73;;;13.40;99.90;;;;;;5067848;28;20101;-89
2022/11/01 02:40:42;;;;;;;19.02;8.32;;;13.40;99.90;;;;;;5068790;28;20407;-89
2022/11/01 02:43:15;;;;;;;16.33;7.07;;;13.40;99.90;;;;;;5066631;28;20053;-88
2022/11/01 02:45:45;;;;;;;12.90;7.72;;;13.50;99.90;;;;;;5068366;28;20055;-89
2022/11/01 02:48:10;;;;;;;18.52;7.68;;;13.70;99.90;;;;;;5051010;28;20081;-88
2022/11/01 02:50:44;;;;;;;13.80;7.47;;;13.50;99.90;;;;;;5050201;28;20048;-87
2022/11/01 02:53:10;;;;;;;18.77;8.32;;;13.50;99.90;;;;;;5051167;28;20502;-89
2022/11/01 02:55:36;;;;;;;21.70;7.95;;;13.50;99.90;;;;;;5066083;28;20507;-87
2022/11/01 02:58:27;;;;;;;16.33;7.65;;;14.10;99.90;;;;;;5068192;28;20044;-89
2022/11/01 03:00:55;;;;;;;14.20;7.35;;;13.60;99.90;;;;;;5058125;28;20585;-88
2022/11/01 03:03:32;;;;;;;15.15;7.47;;;13.50;99.90;;;;;;5050846;28;20407;-88
2022/11/01 03:06:11;;;;;;;14.32;7.30;;;13.50;99.90;;;;;;5086110;28;20054;-88
2022/11/01 03:08:41;;;;;;;14.27;7.68;;;13.50;99.90;;;;;;5069136;28;20311;-89
2022/11/01 03:11:11;;;;;;;21.30;7.97;;;13.50;99.90;;;;;;5070326;28;20040;-88
2022/11/01 03:13:51;;;;;;;15.18;6.85;;;13.60;99.90;;;;;;5071573;28;20131;-88
2022/11/01 03:16:36;;;;;;;13.65;6.53;;;13.60;99.90;;;;;;5079338;28;20105;-88
2022/11/01 03:19:19;;;;;;;13.75;7.22;;;14.10;99.90;;;;;;5079529;28;20047;-88
2022/11/01 03:22:05;;;;;;;20.20;7.68;;;13.60;99.90;;;;;;5077210;28;20516;-90
2022/11/01 03:24:41;;;;;;;13.00;6.45;;;13.70;99.90;;;;;;5073598;28;20123;-91
2022/11/01 03:27:10;;;;;;;19.70;7.05;;;13.70;99.90;;;;;;5093773;28;20028;-90
2022/11/01 03:29:37;;;;;;;12.02;6.22;;;14.30;99.90;;;;;;5084006;28;20064;-91
2022/11/01 03:32:04;;;;;;;18.10;7.18;;;13.70;99.90;;;;;;5064495;28;20036;-90
2022/11/01 03:34:35;;;;;;;19.83;7.00;;;13.70;99.90;;;;;;5073950;28;20589;-90
2022/11/01 03:37:06;;;;;;;14.95;6.55;;;13.70;99.90;;;;;;5073268;28;20078;-90
2022/11/01 03:39:48;;;;;;;15.07;6.75;;;13.80;99.90;;;;;;5073839;28;20177;-89
2022/11/01 03:42:19;;;;;;;12.65;6.95;;;13.80;99.90;;;;;;5091007;28;20096;-89
2022/11/01 03:44:48;;;;;;;14.48;6.45;;;13.80;99.90;;;;;;5075625;28;20040;-89
2022/11/01 03:47:14;;;;;;;17.08;6.97;;;13.80;99.90;;;;;;5055929;28;20048;-88
2022/11/01 03:49:40;;;;;;;14.80;6.55;;;13.80;99.90;;;;;;5072066;28;20299;-88
2022/11/01 03:52:06;;;;;;;11.52;7.00;;;13.90;99.90;;;;;;5070414;28;20036;-89
2022/11/01 03:54:32;;;;;;;18.85;6.32;;;14.20;99.90;;;;;;5054283;28;20127;-88
2022/11/01 03:56:58;;;;;;;20.73;6.57;;;13.90;99.90;;;;;;5055218;28;20075;-89
2022/11/01 03:59:23;;;;;;;10.10;5.28;;;14.20;99.90;;;;;;5070762;28;20119;-89
2022/11/01 04:01:49;;;;;;;9.80;4.90;;;14.00;99.90;;;;;;5054689;28;20044;-88
2022/11/01 04:04:15;;;;;;;20.50;5.38;;;14.10;99.90;;;;;;5053462;28;20052;-89
2022/11/01 04:06:40;;;;;;;15.00;5.45;;;14.10;99.90;;;;;;5073154;28;20044;-88
2022/11/01 04:09:06;;;;;;;15.27;6.18;;;14.40;99.90;;;;;;5055082;28;20036;-88
2022/11/01 04:11:32;;;;;;;12.55;5.40;;;14.20;99.90;;;;;;5072962;28;20055;-88
2022/11/01 04:20:31;;;;;;;10.02;5.03;;;14.30;99.90;;;;;;5055952;28;20040;-89
2022/11/01 04:22:14;;;;;;;12.60;4.72;;;14.40;99.90;;;;;;5072697;28;20048;-88
2022/11/01 04:24:40;;;;;;;18.23;5.18;;;14.50;99.90;;;;;;5073947;28;20056;-89
2022/11/01 04:27:06;;;;;;;10.25;6.10;;;14.50;99.90;;;;;;5039994;28;20098;-88
2022/11/01 04:29:36;;;;;;;11.88;5.10;;;14.50;99.90;;;;;;5072077;28;20040;-88
2022/11/01 04:32:05;;;;;;;14.57;4.72;;;14.50;99.90;;;;;;5072028;28;20048;-88
2022/11/01 04:34:42;;;;;;;10.32;4.97;;;14.50;99.90;;;;;;5053649;28;20559;-88
2022/11/01 04:37:09;;;;;;;15.07;4.82;;;14.60;99.90;;;;;;5073375;28;20048;-89
2022/11/01 04:39:36;;;;;;;9.02;4.78;;;14.60;99.90;;;;;;5056219;28;20079;-89
2022/11/01 04:42:02;;;;;;;11.55;4.50;;;14.60;99.90;;;;;;5055104;28;20059;-89
2022/11/01 04:44:27;;;;;;;7.95;3.88;;;14.00;99.90;;;;;;5072734;28;20051;-89
2022/11/01 04:46:53;;;;;;;12.38;3.97;;;14.70;99.90;;;;;;5071724;28;20044;-89
2022/11/01 04:49:19;;;;;;;13.98;5.35;;;14.70;99.90;;;;;;5073354;28;20127;-89
2022/11/01 04:51:44;;;;;;;8.93;4.28;;;14.70;99.90;;;;;;5052817;28;20058;-88
2022/11/01 04:54:10;;;;;;;9.05;4.38;;;14.80;99.90;;;;;;5053739;28;20518;-88
2022/11/01 04:56:39;;;;;;;8.20;4.10;;;14.80;99.90;;;;;;5086540;28;20040;-87
2022/11/01 04:59:04;;;;;;;9.70;4.28;;;15.40;99.90;;;;;;5069808;28;20047;-88
2022/11/01 05:01:30;;;;;;;13.45;4.60;;;14.80;99.90;;;;;;5053194;28;20385;-89
2022/11/01 05:03:57;;;;;;;6.95;4.10;;;14.90;99.90;;;;;;5069351;28;20078;-90
2022/11/01 05:06:22;;;;;;;11.50;3.63;;;14.90;99.90;;;;;;5054009;28;20398;-90
2022/11/01 05:08:48;;;;;;;10.25;4.20;;;14.90;99.90;;;;;;5069580;28;20082;-90
2022/11/01 05:11:16;;;;;;;14.57;5.22;;;14.90;99.90;;;;;;5072330;28;20048;-89
2022/11/01 05:13:42;;;;;;;20.25;5.80;;;14.90;99.90;;;;;;5040516;28;20040;-92
2022/11/01 05:16:07;;;;;;;12.68;4.40;;;14.90;99.90;;;;;;5070737;28;20544;-88
2022/11/01 05:18:33;;;;;;;11.10;4.03;;;15.00;99.90;;;;;;5070096;28;20040;-92
2022/11/01 05:20:59;;;;;;;15.02;4.00;;;15.10;99.90;;;;;;5070559;28;20078;-88
2022/11/01 05:23:24;;;;;;;8.00;3.33;;;15.10;99.90;;;;;;5087638;28;20048;-87
2022/11/01 05:25:50;;;;;;;10.88;3.38;;;15.10;99.90;;;;;;5086237;28;20051;-89
2022/11/01 05:28:16;;;;;;;7.63;3.72;;;15.10;99.90;;;;;;5069730;28;20046;-87
2022/11/01 05:30:42;;;;;;;11.52;3.65;;;15.20;99.90;;;;;;5068057;28;20065;-87
2022/11/01 05:33:10;;;;;;;10.68;3.80;;;15.20;99.90;;;;;;5069162;28;20055;-88
2022/11/01 05:35:38;;;;;;;8.82;3.17;;;15.20;99.90;;;;;;5052229;28;20048;-87
2022/11/01 05:38:04;;;;;;;6.57;3.38;;;15.30;99.90;;;;;;5051740;28;20043;-88
2022/11/01 05:40:31;;;;;;;8.40;3.05;;;15.30;99.90;;;;;;5053077;28;20573;-91
2022/11/01 05:42:57;;;;;;;11.45;2.90;;;15.40;99.90;;;;;;5068729;28;20139;-87
2022/11/01 05:45:23;;;;;;;8.88;4.13;;;15.40;99.90;;;;;;5068635;28;20051;-86
2022/11/01 05:47:49;;;;;;;8.77;3.58;;;15.40;99.90;;;;;;5069068;28;20044;-90
2022/11/01 05:50:15;;;;;;;8.25;3.17;;;15.40;99.90;;;;;;5069397;28;20054;-89
2022/11/01 05:52:42;;;;;;;14.35;3.35;;;15.50;99.90;;;;;;5068925;28;20040;-89
2022/11/01 05:55:08;;;;;;;6.55;2.90;;;15.50;99.90;;;;;;5069345;28;20499;-90
2022/11/01 05:57:34;;;;;;;3.78;2.13;;;15.50;99.90;;;;;;5069722;28;20071;-89
2022/11/01 06:00:00;;;;;;;6.82;1.85;;;15.50;99.90;;;;;;5052434;28;20079;-89
2022/11/01 06:02:26;;;;;;;3.97;1.30;;;15.50;99.90;;;;;;5070426;28;20040;-93
2022/11/01 06:04:52;;;;;;;5.40;1.50;;;15.40;99.90;;;;;;5052616;28;20178;-92
2022/11/01 06:07:17;;;;;;;4.35;1.20;;;15.40;99.90;;;;;;5070390;28;20126;-92
2022/11/01 06:09:43;;;;;;;7.85;1.13;;;15.30;99.90;;;;;;5069135;28;20047;-92
2022/11/01 06:12:09;;;;;;;5.47;0.98;;;15.30;99.90;;;;;;5053020;28;20396;-91
2022/11/01 06:14:34;;;;;;;3.67;0.82;;;15.20;99.90;;;;;;5069708;28;20068;-92
2022/11/01 06:17:00;;;;;;;4.07;0.93;;;15.20;99.90;;;;;;5051967;28;20479;-89
2022/11/01 06:19:26;;;;;;;4.55;1.17;;;15.20;99.90;;;;;;5053278;28;20044;-85
2022/11/01 06:21:51;;;;;;;2.92;0.70;;;15.00;99.90;;;;;;5051916;28;20040;-91
2022/11/01 06:24:17;;;;;;;4.70;0.65;;;14.90;99.90;;;;;;5071374;28;20130;-92
2022/11/01 06:26:42;;;;;;;7.45;1.00;;;14.90;99.90;;;;;;5052874;28;20501;-93
2022/11/01 06:29:08;;;;;;;6.38;0.43;;;14.90;99.90;;;;;;5070886;28;20048;-92
2022/11/01 06:31:34;;;;;;;5.38;0.90;;;14.70;99.90;;;;;;5070502;28;20138;-91
2022/11/01 06:33:59;;;;;;;10.45;0.88;;;14.60;99.90;;;;;;5070009;28;20048;-94
2022/11/01 06:36:25;;;;;;;6.20;0.80;;;14.60;99.90;;;;;;5073879;28;20040;-93
2022/11/01 06:38:51;;;;;;;7.45;0.85;;;14.60;99.90;;;;;;5063300;28;20079;-94
2022/11/01 06:41:16;;;;;;;2.53;0.47;;;14.50;99.90;;;;;;5081045;28;20160;-92
2022/11/01 06:43:42;;;;;;;4.40;0.80;;;15.40;99.90;;;;;;5079790;28;20106;-90
2022/11/01 06:46:08;;;;;;;5.30;0.70;;;14.50;99.90;;;;;;5041008;28;20048;-89
2022/11/01 06:48:33;;;;;;;5.55;0.85;;;14.40;99.90;;;;;;5070582;28;20044;-90
2022/11/01 06:51:03;;;;;;;6.63;0.80;;;14.40;99.90;;;;;;5069788;28;20051;-92
2022/11/01 06:53:29;;;;;;;10.98;0.80;;;14.30;99.90;;;;;;5053327;28;20044;-92
2022/11/01 06:55:58;;;;;;;1.80;0.32;;;14.30;99.90;;;;;;5051685;28;20047;-94
2022/11/01 06:58:24;;;;;;;7.10;0.70;;;14.30;99.90;;;;;;5053224;28;20040;-91
2022/11/01 07:00:50;;;;;;;5.93;0.73;;;14.20;99.90;;;;;;5069373;28;20040;-92
2022/11/01 07:03:15;;;;;;;4.63;0.95;;;14.10;99.90;;;;;;5037993;28;20044;-91
2022/11/01 07:05:42;;;;;;;4.97;0.50;;;14.20;99.90;;;;;;5070047;28;20796;-94
2022/11/01 07:08:11;;;;;;;12.25;1.15;;;14.10;99.90;;;;;;5070499;28;20044;-91
2022/11/01 07:10:39;;;;;;;9.05;1.23;;;14.10;99.90;;;;;;5070311;28;20040;-92
2022/11/01 07:13:08;;;;;;;7.38;0.75;;;14.00;99.90;;;;;;5069111;28;20036;-94
2022/11/01 07:15:34;;;;;;;6.30;1.30;;;14.00;99.90;;;;;;5070279;28;20036;-93
2022/11/01 07:18:02;;;;;;;12.40;1.05;;;14.00;99.90;;;;;;5052892;28;20150;-90
2022/11/01 07:20:30;;;;;;;9.40;1.10;;;14.00;99.90;;;;;;5052763;28;20123;-95
2022/11/01 07:23:00;;;;;;;9.57;1.50;;;14.00;99.90;;;;;;5068997;28;20131;-93
2022/11/01 07:25:27;;;;;;;14.68;1.60;;;14.00;99.90;;;;;;5053049;28;20055;-92
2022/11/01 07:27:53;;;;;;;9.38;1.20;;;13.90;99.90;;;;;;5071550;28;20084;-93
2022/11/01 07:30:19;;;;;;;8.68;1.70;;;13.40;99.90;;;;;;5035489;28;20075;-91
2022/11/01 07:32:45;;;;;;;8.20;0.98;;;13.90;99.90;;;;;;5054067;28;20399;-89
2022/11/01 07:35:10;;;;;;;9.52;1.75;;;14.00;99.90;;;;;;5070946;28;20059;-91
2022/11/01 07:37:36;;;;;;;13.55;1.42;;;14.00;99.90;;;;;;5064378;28;20044;-91
2022/11/01 07:40:02;;;;;;;15.40;1.55;;;14.10;99.90;;;;;;5062116;28;20113;-91
2022/11/01 07:42:28;;;;;;;6.38;0.90;;;14.10;99.90;;;;;;5064542;28;20063;-90
2022/11/01 07:44:54;;;;;;;8.88;1.73;;;14.10;99.90;;;;;;5046967;28;20078;-92
2022/11/01 07:47:20;;;;;;;10.13;1.70;;;14.10;99.90;;;;;;5056111;28;20040;-90
2022/11/01 07:49:46;;;;;;;12.23;2.70;;;14.10;99.90;;;;;;5052906;28;20399;-92
2022/11/01 07:52:12;;;;;;;10.45;1.60;;;14.20;99.90;;;;;;5054249;28;20571;-92
2022/11/01 07:54:38;;;;;;;5.38;1.33;;;14.10;99.90;;;;;;5071240;28;20059;-92
2022/11/01 07:57:04;;;;;;;12.98;1.67;;;14.20;99.90;;;;;;5053945;28;20036;-89
2022/11/01 07:59:30;;;;;;;12.32;2.85;;;14.20;99.90;;;;;;5053477;28;20040;-89
2022/11/01 08:01:55;;;;;;;13.13;1.40;;;14.20;99.90;;;;;;5053357;28;20048;-92
2022/11/01 08:04:22;;;;;;;9.05;1.90;;;14.40;99.90;;;;;;5041352;28;20048;-90
2022/11/01 08:06:47;;;;;;;8.65;1.52;;;14.50;99.90;;;;;;5076718;28;20052;-91
2022/11/01 08:09:13;;;;;;;8.55;1.30;;;14.50;99.90;;;;;;5076147;28;20036;-92
2022/11/01 08:11:39;;;;;;;8.23;1.27;;;14.60;99.90;;;;;;5078278;28;20055;-90
2022/11/01 08:14:05;;;;;;;13.20;2.42;;;14.90;99.90;;;;;;5040563;28;20154;-91
2022/11/01 08:16:30;;;;;;;8.68;1.25;;;14.60;99.90;;;;;;5041496;28;20483;-92
2022/11/01 08:18:56;;;;;;;8.05;1.23;;;14.60;99.90;;;;;;5039150;28;20581;-90
2022/11/01 08:21:22;;;;;;;12.20;1.70;;;14.60;99.90;;;;;;5073663;28;20110;-93
2022/11/01 08:23:47;;;;;;;15.15;1.95;;;14.70;99.90;;;;;;5058471;28;20038;-93
2022/11/01 08:26:13;;;;;;;19.85;2.83;;;14.70;99.90;;;;;;5060818;28;20070;-91
2022/11/01 08:28:39;;;;;;;11.10;1.40;;;14.70;99.90;;;;;;5057289;28;20051;-93
2022/11/01 08:31:08;;;;;;;23.02;3.53;;;14.70;99.90;;;;;;5042419;28;20040;-92
2022/11/01 08:33:34;;;;;;;8.43;1.63;;;14.90;99.90;;;;;;5060780;28;20128;-96
2022/11/01 08:36:00;;;;;;;16.65;1.90;;;14.80;99.90;;;;;;5057482;28;20044;-95
2022/11/01 08:38:26;;;;;;;14.85;1.77;;;14.80;99.90;;;;;;5059198;28;20105;-94
2022/11/01 08:40:52;;;;;;;23.40;2.03;;;14.80;99.90;;;;;;5066619;28;20057;-92
2022/11/01 08:43:18;;;;;;;10.85;1.70;;;14.80;99.90;;;;;;5062053;28;20506;-94
2022/11/01 08:45:44;;;;;;;14.55;1.83;;;14.80;99.90;;;;;;5064018;28;20044;-94
2022/11/01 08:48:12;;;;;;;12.82;2.45;;;14.80;99.90;;;;;;5064355;28;20032;-96
2022/11/01 08:50:38;;;;;;;12.93;1.77;;;14.80;99.90;;;;;;5060102;28;20526;-92
2022/11/01 08:53:13;;;;;;;15.88;2.25;;;14.80;99.90;;;;;;5056496;28;20050;-93
2022/11/01 08:55:47;;;;;;;18.25;2.13;;;14.70;99.90;;;;;;5064455;28;20044;-94
2022/11/01 08:58:12;;;;;;;19.20;2.65;;;14.70;99.90;;;;;;5040031;28;20107;-94
2022/11/01 09:00:40;;;;;;;16.88;2.65;;;14.70;99.90;;;;;;5042410;28;20102;-95
2022/11/01 09:03:15;;;;;;;17.48;2.30;;;14.70;99.90;;;;;;5076833;28;20181;-94
2022/11/01 09:05:40;;;;;;;19.33;2.10;;;14.70;99.90;;;;;;5041233;28;20063;-95
2022/11/01 09:08:26;;;;;;;14.07;2.40;;;14.70;99.90;;;;;;5057889;28;20048;-96
2022/11/01 09:10:57;;;;;;;20.08;2.88;;;14.70;99.90;;;;;;5093105;28;20044;-95
2022/11/01 09:13:22;;;;;;;13.93;2.75;;;14.70;99.90;;;;;;5067296;28;20074;-96
2022/11/01 09:15:48;;;;;;;14.70;2.80;;;14.70;99.90;;;;;;5081681;28;20048;-96
2022/11/01 09:18:14;;;;;;;17.40;2.55;;;14.90;99.90;;;;;;5068076;28;20593;-94
2022/11/01 09:20:41;;;;;;;19.65;3.03;;;15.00;99.90;;;;;;5068897;28;20092;-95
2022/11/01 09:23:07;;;;;;;17.17;3.17;;;15.10;99.90;;;;;;5084324;28;20051;-96
2022/11/01 09:25:33;;;;;;;17.23;1.98;;;15.20;99.90;;;;;;5086896;28;20044;-96
2022/11/01 09:27:58;;;;;;;17.67;2.55;;;15.30;99.90;;;;;;5082153;28;20048;-94
2022/11/01 09:30:25;;;;;;;18.35;2.92;;;15.40;99.90;;;;;;5077265;28;20068;-95
2022/11/01 09:32:50;;;;;;;21.58;3.78;;;15.50;99.90;;;;;;5080093;28;20123;-96
2022/11/01 09:35:17;;;;;;;16.95;2.80;;;15.50;99.90;;;;;;5078290;28;20076;-95
2022/11/01 09:37:43;;;;;;;15.70;2.10;;;15.60;99.90;;;;;;5065554;28;20040;-96
2022/11/01 09:40:10;;;;;;;18.25;2.47;;;15.60;99.90;;;;;;5084039;28;20047;-96
2022/11/01 09:42:42;;;;;;;15.45;2.22;;;15.70;99.90;;;;;;5083252;28;20095;-96
2022/11/01 09:45:22;;;;;;;15.20;2.15;;;15.70;99.90;;;;;;5096974;28;20044;-94
2022/11/01 09:47:55;;;;;;;20.98;2.85;;;15.60;99.90;;;;;;5095557;28;20043;-96
2022/11/01 09:50:38;;;;;;;14.35;3.35;;;15.60;99.90;;;;;;5069060;28;20070;-96
2022/11/01 09:53:13;;;;;;;17.60;3.30;;;15.60;99.90;;;;;;5082959;28;20044;-96
2022/11/01 09:56:08;;;;;;;17.73;3.30;;;15.70;99.90;;;;;;5085094;28;20125;-96
2022/11/01 09:59:17;;;;;;;21.33;4.03;;;15.80;99.90;;;;;;5073696;28;20083;-95
2022/11/01 10:01:57;;;;;;;14.27;3.60;;;15.80;99.90;;;;;;5085474;28;20085;-93
2022/11/01 10:05:04;;;;;;;18.17;3.13;;;15.90;99.90;;;;;;5092968;28;20136;-95
2022/11/01 10:08:21;;;;;;;14.90;3.40;;;15.90;99.90;;;;;;5090493;28;20096;-96
2022/11/01 10:11:08;;;;;;;15.02;2.28;;;16.00;99.90;;;;;;5052085;28;20044;-96
2022/11/01 10:14:18;;;;;;;11.00;2.50;;;15.90;99.90;;;;;;5086945;28;20055;-96
2022/11/01 10:17:02;;;;;;;14.75;2.83;;;15.90;99.90;;;;;;5004020;28;20049;-96
2022/11/01 10:19:32;;;;;;;15.85;2.42;;;16.00;99.90;;;;;;5077722;28;20144;-96
2022/11/01 10:22:06;;;;;;;16.23;2.70;;;16.00;99.90;;;;;;5065467;28;20054;-96
2022/11/01 10:24:48;;;;;;;11.65;2.38;;;15.90;99.90;;;;;;5063473;28;20044;-93
2022/11/01 10:27:21;;;;;;;26.77;2.83;;;16.00;99.90;;;;;;5087641;28;20067;-91
2022/11/01 10:30:17;;;;;;;15.23;2.63;;;16.10;99.90;;;;;;5095079;28;20058;-96
2022/11/01 10:32:48;;;;;;;17.73;3.08;;;16.10;99.90;;;;;;5095735;28;20051;-96
2022/11/01 10:35:26;;;;;;;27.95;3.17;;;16.10;99.90;;;;;;5093831;28;20085;-94
2022/11/01 10:38:13;;;;;;;17.05;2.70;;;16.10;99.90;;;;;;5095832;28;20043;-96
2022/11/01 10:40:55;;;;;;;20.42;2.75;;;16.20;99.90;;;;;;5094452;28;20020;-96
2022/11/01 10:43:24;;;;;;;16.20;2.63;;;16.30;99.90;;;;;;5093809;28;20051;-92
2022/11/01 10:45:54;;;;;;;12.95;3.05;;;16.20;99.90;;;;;;5093334;28;20042;-96
2022/11/01 10:48:44;;;;;;;14.82;2.40;;;16.10;99.90;;;;;;5092044;28;20083;-96
2022/11/01 10:51:13;;;;;;;19.58;2.50;;;16.00;99.90;;;;;;5091153;28;20058;-96
2022/11/01 10:53:50;;;;;;;14.27;2.50;;;15.60;99.90;;;;;;5091638;28;20040;-94
2022/11/01 10:56:25;;;;;;;17.15;3.10;;;15.90;99.90;;;;;;5061136;28;20050;-95
2022/11/01 10:59:01;;;;;;;18.63;2.15;;;15.90;99.90;;;;;;5078636;28;20032;-96
2022/11/01 11:01:34;;;;;;;17.88;3.72;;;15.90;99.90;;;;;;5076795;28;20046;-95
2022/11/01 11:04:05;;;;;;;21.90;3.70;;;15.80;99.90;;;;;;5080889;28;20098;-90
2022/11/01 11:06:35;;;;;;;17.70;2.60;;;15.80;99.90;;;;;;5102333;28;20043;-96
2022/11/01 11:09:03;;;;;;;11.68;2.35;;;15.80;99.90;;;;;;5088442;28;20090;-94
2022/11/01 11:11:35;;;;;;;24.73;3.22;;;15.70;99.90;;;;;;5094044;28;20040;-96
2022/11/01 11:14:05;;;;;;;19.27;3.43;;;15.60;99.90;;;;;;5078860;28;20037;-96
2022/11/01 11:16:45;;;;;;;14.25;2.38;;;15.50;99.90;;;;;;5095811;28;20024;-96
2022/11/01 11:19:29;;;;;;;19.85;3.08;;;15.20;99.90;;;;;;5094723;28;20066;-94
2022/11/01 11:22:13;;;;;;;17.83;1.83;;;15.40;99.90;;;;;;5095398;28;20043;-94
2022/11/01 11:24:45;;;;;;;13.23;3.67;;;15.50;99.90;;;;;;5095064;28;20040;-96
2022/11/01 11:27:16;;;;;;;13.05;2.75;;;15.40;99.90;;;;;;5094245;28;20040;-96
2022/11/01 11:29:57;;;;;;;15.15;2.47;;;15.40;99.90;;;;;;5095687;28;20095;-96
2022/11/01 11:32:27;;;;;;;22.30;2.80;;;16.10;99.90;;;;;;5094810;28;20040;-95
2022/11/01 11:35:15;;;;;;;14.40;2.22;;;15.40;99.90;;;;;;5094861;28;20040;-91
2022/11/01 11:37:52;;;;;;;14.68;2.20;;;15.30;99.90;;;;;;5094598;28;20560;-95
2022/11/01 11:40:23;;;;;;;11.38;1.85;;;15.50;99.90;;;;;;5109206;28;20032;-93
2022/11/01 11:42:51;;;;;;;22.52;2.75;;;15.60;99.90;;;;;;5087158;28;20099;-91
2022/11/01 11:45:26;;;;;;;18.20;2.75;;;15.60;99.90;;;;;;5081694;28;20049;-93
2022/11/01 11:47:53;;;;;;;16.48;2.75;;;15.60;99.90;;;;;;5062272;28;20088;-95
2022/11/01 11:50:18;;;;;;;15.07;2.47;;;15.70;99.90;;;;;;5078015;28;20047;-94
2022/11/01 11:52:57;;;;;;;16.02;2.47;;;15.80;99.90;;;;;;5088718;28;20040;-93
2022/11/01 11:55:43;;;;;;;24.63;3.70;;;15.90;99.90;;;;;;5087702;28;20040;-94
2022/11/01 11:58:20;;;;;;;13.32;3.20;;;16.00;99.90;;;;;;5090067;28;20040;-95
2022/11/01 12:00:51;;;;;;;16.05;3.03;;;16.10;99.90;;;;;;5092019;28;20107;-94
2022/11/01 12:03:17;;;;;;;24.85;4.28;;;16.20;99.90;;;;;;5084620;28;20123;-90
2022/11/01 12:06:07;;;;;;;15.05;2.40;;;16.20;99.90;;;;;;5078374;28;20058;-92
2022/11/01 12:08:44;;;;;;;14.10;2.53;;;16.30;99.90;;;;;;5066801;28;20087;-95
2022/11/01 12:11:20;;;;;;;13.88;2.00;;;16.40;99.90;;;;;;5063985;28;20056;-91
2022/11/01 12:14:01;;;;;;;12.90;2.13;;;16.40;99.90;;;;;;5080301;28;20052;-91
2022/11/01 12:16:27;;;;;;;25.58;4.38;;;16.40;99.90;;;;;;5077969;28;20126;-95
2022/11/01 12:19:28;;;;;;;16.65;2.10;;;16.40;99.90;;;;;;5062910;28;20089;-90
2022/11/01 12:21:59;;;;;;;17.63;2.58;;;16.30;99.90;;;;;;5095183;28;20044;-92
2022/11/01 12:24:44;;;;;;;11.88;1.95;;;16.30;99.90;;;;;;5079162;28;20071;-93
2022/11/01 12:27:26;;;;;;;12.82;1.88;;;16.30;99.90;;;;;;5062511;28;20067;-92
2022/11/01 12:30:14;;;;;;;20.73;2.97;;;16.30;99.90;;;;;;5091533;28;20036;-92
2022/11/01 12:32:48;;;;;;;14.38;2.47;;;16.40;99.90;;;;;;5061559;28;20055;-87
2022/11/01 12:35:31;;;;;;;14.43;2.45;;;16.50;99.90;;;;;;5073983;28;20044;-86
2022/11/01 12:38:25;;;;;;;16.55;2.83;;;16.60;99.90;;;;;;5055561;28;20032;-87
2022/11/01 12:40:51;;;;;;;16.58;2.33;;;16.60;99.90;;;;;;5072752;28;20044;-86
2022/11/01 12:43:37;;;;;;;10.27;1.98;;;16.60;99.90;;;;;;5073195;28;20526;-87
2022/11/01 12:46:18;;;;;;;10.20;2.30;;;16.60;99.90;;;;;;5073093;28;20052;-87
2022/11/01 12:48:50;;;;;;;8.10;2.13;;;16.60;99.90;;;;;;5069300;28;20054;-87
2022/11/01 12:51:24;;;;;;;19.05;2.35;;;16.60;99.90;;;;;;5073361;28;20048;-89
2022/11/01 12:54:15;;;;;;;12.23;1.92;;;16.60;99.90;;;;;;5074275;28;20141;-88
2022/11/01 12:56:41;;;;;;;16.08;2.03;;;16.60;99.90;;;;;;5072614;28;20048;-87
2022/11/01 12:59:12;;;;;;;12.23;1.83;;;16.70;99.90;;;;;;5073247;28;20400;-87
2022/11/01 13:01:58;;;;;;;13.23;2.17;;;16.70;99.90;;;;;;5057031;28;20063;-88